sensor_id;sensor_type;location;lat;lon;timestamp;pressure;altitude;pressure_sealevel;temperature;humidity
40075;BME280;26529;51.530;11.754;2023-01-28T00:00:30;100978.13;;;18.41;47.16
40075;BME280;26529;51.530;11.754;2023-01-28T00:02:56;100978.97;;;18.42;47.07
40075;BME280;26529;51.530;11.754;2023-01-28T00:05:21;100983.44;;;18.41;47.01
40075;BME280;26529;51.530;11.754;2023-01-28T00:07:48;100981.56;;;18.43;46.82
40075;BME280;26529;51.530;11.754;2023-01-28T00:10:15;100985.00;;;18.46;47.06
40075;BME280;26529;51.530;11.754;2023-01-28T00:12:40;100986.88;;;18.43;47.10
40075;BME280;26529;51.530;11.754;2023-01-28T00:15:06;100981.69;;;18.40;47.03
40075;BME280;26529;51.530;11.754;2023-01-28T00:17:32;100982.63;;;18.39;47.30
40075;BME280;26529;51.530;11.754;2023-01-28T00:19:57;100986.88;;;18.43;46.82
40075;BME280;26529;51.530;11.754;2023-01-28T00:22:23;100987.94;;;18.39;47.09
40075;BME280;26529;51.530;11.754;2023-01-28T00:24:48;100980.84;;;18.40;47.21
40075;BME280;26529;51.530;11.754;2023-01-28T00:27:14;100983.34;;;18.43;47.07
40075;BME280;26529;51.530;11.754;2023-01-28T00:29:39;100985.94;;;18.44;47.19
40075;BME280;26529;51.530;11.754;2023-01-28T00:32:05;100983.03;;;18.32;47.28
40075;BME280;26529;51.530;11.754;2023-01-28T00:34:30;100985.09;;;18.25;47.52
40075;BME280;26529;51.530;11.754;2023-01-28T00:36:56;100988.94;;;18.19;47.64
40075;BME280;26529;51.530;11.754;2023-01-28T00:39:22;100986.50;;;18.14;47.59
40075;BME280;26529;51.530;11.754;2023-01-28T00:41:49;100985.69;;;18.12;47.61
40075;BME280;26529;51.530;11.754;2023-01-28T00:44:15;100991.09;;;18.11;47.54
40075;BME280;26529;51.530;11.754;2023-01-28T00:46:40;100993.03;;;18.07;47.62
40075;BME280;26529;51.530;11.754;2023-01-28T00:49:06;100993.09;;;18.06;47.63
40075;BME280;26529;51.530;11.754;2023-01-28T00:51:33;100990.44;;;18.06;47.64
40075;BME280;26529;51.530;11.754;2023-01-28T00:53:58;100991.41;;;18.03;47.72
40075;BME280;26529;51.530;11.754;2023-01-28T00:56:26;100995.00;;;18.02;47.61
40075;BME280;26529;51.530;11.754;2023-01-28T00:58:51;100995.94;;;18.01;47.86
40075;BME280;26529;51.530;11.754;2023-01-28T01:01:20;100997.66;;;18.02;47.71
40075;BME280;26529;51.530;11.754;2023-01-28T01:03:47;100992.50;;;17.99;47.74
40075;BME280;26529;51.530;11.754;2023-01-28T01:06:20;100988.13;;;17.98;47.77
40075;BME280;26529;51.530;11.754;2023-01-28T01:08:46;100996.16;;;17.96;47.72
40075;BME280;26529;51.530;11.754;2023-01-28T01:11:14;100990.00;;;17.96;47.76
40075;BME280;26529;51.530;11.754;2023-01-28T01:13:40;100994.44;;;17.95;47.73
40075;BME280;26529;51.530;11.754;2023-01-28T01:16:11;100995.44;;;17.93;47.90
40075;BME280;26529;51.530;11.754;2023-01-28T01:18:37;100991.06;;;17.92;47.68
40075;BME280;26529;51.530;11.754;2023-01-28T01:21:12;100988.41;;;17.92;47.73
40075;BME280;26529;51.530;11.754;2023-01-28T01:23:38;100995.53;;;17.91;47.83
40075;BME280;26529;51.530;11.754;2023-01-28T01:26:04;100992.00;;;17.90;47.82
40075;BME280;26529;51.530;11.754;2023-01-28T01:28:30;100988.56;;;17.88;47.94
40075;BME280;26529;51.530;11.754;2023-01-28T01:33:27;100989.50;;;17.87;47.86
40075;BME280;26529;51.530;11.754;2023-01-28T01:35:54;100994.81;;;17.87;47.76
40075;BME280;26529;51.530;11.754;2023-01-28T01:38:19;100995.72;;;17.86;47.95
40075;BME280;26529;51.530;11.754;2023-01-28T01:40:45;100990.50;;;17.85;47.79
40075;BME280;26529;51.530;11.754;2023-01-28T01:43:19;100999.25;;;17.87;47.83
40075;BME280;26529;51.530;11.754;2023-01-28T01:45:49;100997.53;;;17.86;47.70
40075;BME280;26529;51.530;11.754;2023-01-28T01:48:23;100997.59;;;17.84;47.77
40075;BME280;26529;51.530;11.754;2023-01-28T01:51:11;101004.69;;;17.84;47.97
40075;BME280;26529;51.530;11.754;2023-01-28T01:53:42;101008.19;;;17.84;47.82
40075;BME280;26529;51.530;11.754;2023-01-28T01:56:12;101006.47;;;17.83;47.84
40075;BME280;26529;51.530;11.754;2023-01-28T01:58:41;101006.53;;;17.82;47.86
40075;BME280;26529;51.530;11.754;2023-01-28T02:01:09;101003.97;;;17.80;47.75
40075;BME280;26529;51.530;11.754;2023-01-28T02:03:42;101004.88;;;17.79;48.06
40075;BME280;26529;51.530;11.754;2023-01-28T02:06:12;101016.38;;;17.80;47.83
40075;BME280;26529;51.530;11.754;2023-01-28T02:08:39;101020.75;;;17.81;47.98
40075;BME280;26529;51.530;11.754;2023-01-28T02:11:07;101020.81;;;17.79;47.93
40075;BME280;26529;51.530;11.754;2023-01-28T02:13:45;101018.16;;;17.79;47.61
40075;BME280;26529;51.530;11.754;2023-01-28T02:16:12;101028.75;;;17.79;47.95
40075;BME280;26529;51.530;11.754;2023-01-28T02:18:38;101027.03;;;17.78;47.84
40075;BME280;26529;51.530;11.754;2023-01-28T02:26:52;101036.00;;;17.75;47.92
40075;BME280;26529;51.530;11.754;2023-01-28T02:29:36;101041.31;;;17.75;47.82
40075;BME280;26529;51.530;11.754;2023-01-28T02:32:09;101041.31;;;17.75;48.03
40075;BME280;26529;51.530;11.754;2023-01-28T02:34:56;101038.66;;;17.75;48.05
40075;BME280;26529;51.530;11.754;2023-01-28T02:37:32;101035.16;;;17.75;47.82
40075;BME280;26529;51.530;11.754;2023-01-28T02:40:00;101048.41;;;17.75;47.98
40075;BME280;26529;51.530;11.754;2023-01-28T02:42:32;101041.41;;;17.74;47.89
40075;BME280;26529;51.530;11.754;2023-01-28T02:44:59;101038.81;;;17.72;47.97
40075;BME280;26529;51.530;11.754;2023-01-28T02:47:25;101042.31;;;17.73;47.92
40075;BME280;26529;51.530;11.754;2023-01-28T02:50:11;101045.84;;;17.73;47.88
40075;BME280;26529;51.530;11.754;2023-01-28T02:55:39;101042.41;;;17.71;47.74
40075;BME280;26529;51.530;11.754;2023-01-28T03:04:17;101055.56;;;17.73;47.89
40075;BME280;26529;51.530;11.754;2023-01-28T03:06:50;101043.41;;;17.69;47.81
40075;BME280;26529;51.530;11.754;2023-01-28T03:09:18;101052.28;;;17.68;47.95
40075;BME280;26529;51.530;11.754;2023-01-28T03:11:59;101049.63;;;17.68;47.99
40075;BME280;26529;51.530;11.754;2023-01-28T03:14:49;101047.81;;;17.68;48.01
40075;BME280;26529;51.530;11.754;2023-01-28T03:17:39;101051.41;;;17.67;47.93
40075;BME280;26529;51.530;11.754;2023-01-28T03:20:29;101045.25;;;17.67;47.84
40075;BME280;26529;51.530;11.754;2023-01-28T03:23:21;101049.69;;;17.66;47.95
40075;BME280;26529;51.530;11.754;2023-01-28T03:26:07;101052.41;;;17.65;47.84
40075;BME280;26529;51.530;11.754;2023-01-28T03:28:53;101056.00;;;17.63;48.02
40075;BME280;26529;51.530;11.754;2023-01-28T03:31:42;101061.97;;;17.69;47.96
40075;BME280;26529;51.530;11.754;2023-01-28T03:34:26;101070.03;;;17.66;47.97
40075;BME280;26529;51.530;11.754;2023-01-28T03:37:11;101071.97;;;17.62;47.91
40075;BME280;26529;51.530;11.754;2023-01-28T03:39:45;101077.22;;;17.63;48.02
40075;BME280;26529;51.530;11.754;2023-01-28T03:42:13;101075.50;;;17.62;48.13
40075;BME280;26529;51.530;11.754;2023-01-28T03:45:01;101078.13;;;17.62;48.07
40075;BME280;26529;51.530;11.754;2023-01-28T03:47:30;101075.50;;;17.62;48.07
40075;BME280;26529;51.530;11.754;2023-01-28T03:49:57;101075.50;;;17.62;48.10
40075;BME280;26529;51.530;11.754;2023-01-28T03:52:30;101080.78;;;17.62;48.05
40075;BME280;26529;51.530;11.754;2023-01-28T03:55:10;101081.72;;;17.61;48.01
40075;BME280;26529;51.530;11.754;2023-01-28T03:57:39;101084.38;;;17.61;48.04
40075;BME280;26529;51.530;11.754;2023-01-28T04:00:06;101073.78;;;17.61;47.96
40075;BME280;26529;51.530;11.754;2023-01-28T04:02:39;101078.19;;;17.61;48.00
40075;BME280;26529;51.530;11.754;2023-01-28T04:05:08;101073.78;;;17.61;48.05
40075;BME280;26529;51.530;11.754;2023-01-28T04:07:40;101075.53;;;17.61;48.11
40075;BME280;26529;51.530;11.754;2023-01-28T04:10:17;101083.50;;;17.61;48.08
40075;BME280;26529;51.530;11.754;2023-01-28T04:12:47;101080.91;;;17.59;48.11
40075;BME280;26529;51.530;11.754;2023-01-28T04:15:18;101078.25;;;17.59;47.96
40075;BME280;26529;51.530;11.754;2023-01-28T04:17:47;101077.47;;;17.57;47.97
40075;BME280;26529;51.530;11.754;2023-01-28T04:20:19;101080.91;;;17.59;48.01
40075;BME280;26529;51.530;11.754;2023-01-28T04:22:44;101081.84;;;17.58;48.07
40075;BME280;26529;51.530;11.754;2023-01-28T04:25:11;101085.38;;;17.59;48.01
40075;BME280;26529;51.530;11.754;2023-01-28T04:27:37;101089.03;;;17.56;48.01
40075;BME280;26529;51.530;11.754;2023-01-28T04:30:14;101084.66;;;17.55;48.10
40075;BME280;26529;51.530;11.754;2023-01-28T04:32:46;101089.81;;;17.58;48.01
40075;BME280;26529;51.530;11.754;2023-01-28T04:35:34;101091.66;;;17.56;48.03
40075;BME280;26529;51.530;11.754;2023-01-28T04:41:05;101092.59;;;17.55;48.09
40075;BME280;26529;51.530;11.754;2023-01-28T04:43:33;101094.31;;;17.56;48.04
40075;BME280;26529;51.530;11.754;2023-01-28T04:46:23;101093.53;;;17.54;48.15
40075;BME280;26529;51.530;11.754;2023-01-28T04:49:07;101087.34;;;17.54;48.03
40075;BME280;26529;51.530;11.754;2023-01-28T04:51:40;101090.88;;;17.54;48.17
40075;BME280;26529;51.530;11.754;2023-01-28T04:54:27;101094.38;;;17.55;48.05
40075;BME280;26529;51.530;11.754;2023-01-28T04:56:56;101096.19;;;17.54;48.14
40075;BME280;26529;51.530;11.754;2023-01-28T04:59:21;101092.59;;;17.55;48.16
40075;BME280;26529;51.530;11.754;2023-01-28T05:01:49;101098.84;;;17.54;48.01
40075;BME280;26529;51.530;11.754;2023-01-28T05:04:15;101097.97;;;17.54;48.09
40075;BME280;26529;51.530;11.754;2023-01-28T05:06:41;101098.03;;;17.52;48.26
40075;BME280;26529;51.530;11.754;2023-01-28T05:09:11;101100.69;;;17.52;48.10
40075;BME280;26529;51.530;11.754;2023-01-28T05:11:36;101099.84;;;17.52;48.24
40075;BME280;26529;51.530;11.754;2023-01-28T05:14:03;101104.25;;;17.51;48.21
40075;BME280;26529;51.530;11.754;2023-01-28T05:16:37;101105.97;;;17.52;48.00
40075;BME280;26529;51.530;11.754;2023-01-28T05:19:03;101103.41;;;17.51;48.10
40075;BME280;26529;51.530;11.754;2023-01-28T05:21:34;101119.31;;;17.51;48.18
40075;BME280;26529;51.530;11.754;2023-01-28T05:24:03;101108.63;;;17.52;48.12
40075;BME280;26529;51.530;11.754;2023-01-28T05:26:29;101116.59;;;17.52;48.16
40075;BME280;26529;51.530;11.754;2023-01-28T05:28:54;101119.31;;;17.51;48.14
40075;BME280;26529;51.530;11.754;2023-01-28T05:31:20;101128.19;;;17.49;48.15
40075;BME280;26529;51.530;11.754;2023-01-28T05:33:45;101127.34;;;17.49;48.07
40075;BME280;26529;51.530;11.754;2023-01-28T05:36:12;101129.06;;;17.50;48.06
40075;BME280;26529;51.530;11.754;2023-01-28T05:38:38;101130.91;;;17.48;48.15
40075;BME280;26529;51.530;11.754;2023-01-28T05:41:04;101125.53;;;17.49;48.18
40075;BME280;26529;51.530;11.754;2023-01-28T05:43:31;101131.72;;;17.50;48.13
40075;BME280;26529;51.530;11.754;2023-01-28T05:46:15;101133.56;;;17.48;48.13
40075;BME280;26529;51.530;11.754;2023-01-28T05:48:59;101134.50;;;17.47;48.25
40075;BME280;26529;51.530;11.754;2023-01-28T05:51:43;101130.91;;;17.48;48.07
40075;BME280;26529;51.530;11.754;2023-01-28T05:54:11;101132.69;;;17.47;48.15
40075;BME280;26529;51.530;11.754;2023-01-28T05:56:37;101138.06;;;17.46;48.23
40075;BME280;26529;51.530;11.754;2023-01-28T05:59:03;101145.13;;;17.47;48.19
40075;BME280;26529;51.530;11.754;2023-01-28T06:01:30;101144.09;;;17.49;48.18
40075;BME280;26529;51.530;11.754;2023-01-28T06:03:55;101152.13;;;17.48;48.03
40075;BME280;26529;51.530;11.754;2023-01-28T06:06:21;101147.81;;;17.45;48.23
40075;BME280;26529;51.530;11.754;2023-01-28T06:08:47;101145.16;;;17.45;48.27
40075;BME280;26529;51.530;11.754;2023-01-28T06:11:19;101153.97;;;17.46;48.21
40075;BME280;26529;51.530;11.754;2023-01-28T06:13:46;101152.25;;;17.45;48.22
40075;BME280;26529;51.530;11.754;2023-01-28T06:16:29;101147.88;;;17.44;48.29
40075;BME280;26529;51.530;11.754;2023-01-28T06:19:22;101153.97;;;17.46;48.36
40075;BME280;26529;51.530;11.754;2023-01-28T06:21:48;101155.78;;;17.45;48.33
40075;BME280;26529;51.530;11.754;2023-01-28T06:24:14;101157.56;;;17.45;48.20
40075;BME280;26529;51.530;11.754;2023-01-28T06:26:40;101165.91;;;17.56;47.94
40075;BME280;26529;51.530;11.754;2023-01-28T06:29:05;101167.16;;;17.68;47.81
40075;BME280;26529;51.530;11.754;2023-01-28T06:31:30;101166.72;;;17.79;47.53
40075;BME280;26529;51.530;11.754;2023-01-28T06:33:56;101173.19;;;17.93;47.50
40075;BME280;26529;51.530;11.754;2023-01-28T06:36:21;101168.97;;;18.09;47.01
40075;BME280;26529;51.530;11.754;2023-01-28T06:38:47;101179.94;;;18.41;47.22
40075;BME280;26529;51.530;11.754;2023-01-28T06:41:12;101180.63;;;18.64;46.59
40075;BME280;26529;51.530;11.754;2023-01-28T06:43:38;101181.34;;;18.87;46.64
40075;BME280;26529;51.530;11.754;2023-01-28T06:46:03;101187.88;;;18.99;46.10
40075;BME280;26529;51.530;11.754;2023-01-28T06:48:29;101192.31;;;18.98;45.95
40075;BME280;26529;51.530;11.754;2023-01-28T06:50:55;101188.41;;;18.88;46.33
40075;BME280;26529;51.530;11.754;2023-01-28T06:53:20;101189.75;;;18.78;46.36
40075;BME280;26529;51.530;11.754;2023-01-28T06:55:46;101190.81;;;18.74;46.59
40075;BME280;26529;51.530;11.754;2023-01-28T06:58:12;101187.38;;;18.71;46.44
40075;BME280;26529;51.530;11.754;2023-01-28T07:00:38;101195.50;;;18.68;46.46
40075;BME280;26529;51.530;11.754;2023-01-28T07:03:04;101197.22;;;18.69;46.75
40075;BME280;26529;51.530;11.754;2023-01-28T07:05:29;101195.34;;;18.71;46.73
40075;BME280;26529;51.530;11.754;2023-01-28T07:07:55;101203.19;;;18.75;46.68
40075;BME280;26529;51.530;11.754;2023-01-28T07:10:20;101197.88;;;18.75;46.61
40075;BME280;26529;51.530;11.754;2023-01-28T07:12:46;101204.97;;;18.74;46.49
40075;BME280;26529;51.530;11.754;2023-01-28T07:15:12;101201.44;;;18.74;46.49
40075;BME280;26529;51.530;11.754;2023-01-28T07:17:40;101200.53;;;18.75;46.59
40075;BME280;26529;51.530;11.754;2023-01-28T07:20:06;101205.84;;;18.75;46.50
40075;BME280;26529;51.530;11.754;2023-01-28T07:22:32;101203.19;;;18.75;46.52
40075;BME280;26529;51.530;11.754;2023-01-28T07:24:58;101201.44;;;18.74;46.40
40075;BME280;26529;51.530;11.754;2023-01-28T07:27:25;101201.44;;;18.74;46.51
40075;BME280;26529;51.530;11.754;2023-01-28T07:29:51;101203.91;;;18.78;46.48
40075;BME280;26529;51.530;11.754;2023-01-28T07:32:16;101208.78;;;18.88;46.45
40075;BME280;26529;51.530;11.754;2023-01-28T07:34:42;101207.47;;;18.96;46.48
40075;BME280;26529;51.530;11.754;2023-01-28T07:37:08;101212.38;;;19.06;46.08
40075;BME280;26529;51.530;11.754;2023-01-28T07:39:34;101211.06;;;19.15;46.26
40075;BME280;26529;51.530;11.754;2023-01-28T07:42:00;101211.06;;;19.15;46.28
40075;BME280;26529;51.530;11.754;2023-01-28T07:44:31;101210.19;;;19.14;46.25
40075;BME280;26529;51.530;11.754;2023-01-28T07:46:56;101220.41;;;19.23;45.97
40075;BME280;26529;51.530;11.754;2023-01-28T07:49:22;101218.28;;;19.30;45.79
40075;BME280;26529;51.530;11.754;2023-01-28T07:51:47;101224.97;;;19.39;45.92
40075;BME280;26529;51.530;11.754;2023-01-28T07:54:15;101219.81;;;19.36;45.81
40075;BME280;26529;51.530;11.754;2023-01-28T07:56:41;101213.06;;;19.29;46.11
40075;BME280;26529;51.530;11.754;2023-01-28T07:59:06;101220.25;;;19.27;46.18
40075;BME280;26529;51.530;11.754;2023-01-28T08:01:32;101218.53;;;19.25;46.25
40075;BME280;26529;51.530;11.754;2023-01-28T08:03:57;101227.28;;;19.28;46.18
40075;BME280;26529;51.530;11.754;2023-01-28T08:06:23;101228.09;;;19.30;45.91
40075;BME280;26529;51.530;11.754;2023-01-28T08:08:48;101230.56;;;19.33;45.63
40075;BME280;26529;51.530;11.754;2023-01-28T08:11:14;101231.44;;;19.33;45.59
40075;BME280;26529;51.530;11.754;2023-01-28T08:13:39;101220.75;;;19.35;45.80
40075;BME280;26529;51.530;11.754;2023-01-28T08:16:05;101219.63;;;19.39;45.55
40075;BME280;26529;51.530;11.754;2023-01-28T08:18:31;101220.09;;;19.47;45.49
40075;BME280;26529;51.530;11.754;2023-01-28T08:20:57;101223.72;;;19.46;45.62
40075;BME280;26529;51.530;11.754;2023-01-28T08:23:24;101224.50;;;19.48;45.49
40075;BME280;26529;51.530;11.754;2023-01-28T08:25:53;101229.66;;;19.51;45.12
40075;BME280;26529;51.530;11.754;2023-01-28T08:28:20;101228.78;;;19.51;45.49
40075;BME280;26529;51.530;11.754;2023-01-28T08:30:46;101232.34;;;19.51;45.41
40075;BME280;26529;51.530;11.754;2023-01-28T08:33:13;101226.06;;;19.52;45.55
40075;BME280;26529;51.530;11.754;2023-01-28T08:35:39;101235.00;;;19.51;45.44
40075;BME280;26529;51.530;11.754;2023-01-28T08:38:06;101233.22;;;19.52;45.61
40075;BME280;26529;51.530;11.754;2023-01-28T08:40:33;101235.69;;;19.55;45.63
40075;BME280;26529;51.530;11.754;2023-01-28T08:42:59;101234.50;;;19.61;45.32
40075;BME280;26529;51.530;11.754;2023-01-28T08:45:26;101228.19;;;19.63;45.51
40075;BME280;26529;51.530;11.754;2023-01-28T08:50:24;101224.38;;;19.69;45.26
40075;BME280;26529;51.530;11.754;2023-01-28T08:52:58;101230.47;;;19.71;45.27
40075;BME280;26529;51.530;11.754;2023-01-28T08:55:25;101226.00;;;19.72;45.23
40075;BME280;26529;51.530;11.754;2023-01-28T08:57:51;101225.28;;;19.68;45.36
40075;BME280;26529;51.530;11.754;2023-01-28T09:00:17;101232.50;;;19.66;45.39
40075;BME280;26529;51.530;11.754;2023-01-28T09:02:42;101235.22;;;19.64;45.61
40075;BME280;26529;51.530;11.754;2023-01-28T09:05:08;101240.47;;;19.66;45.56
40075;BME280;26529;51.530;11.754;2023-01-28T09:07:35;101245.88;;;19.64;45.85
40075;BME280;26529;51.530;11.754;2023-01-28T09:10:02;101248.63;;;19.63;45.74
40075;BME280;26529;51.530;11.754;2023-01-28T09:12:28;101255.78;;;19.61;45.83
40075;BME280;26529;51.530;11.754;2023-01-28T09:14:53;101260.41;;;19.57;46.01
40075;BME280;26529;51.530;11.754;2023-01-28T09:17:19;101247.22;;;19.56;45.75
40075;BME280;26529;51.530;11.754;2023-01-28T09:19:45;101250.66;;;19.58;45.64
40075;BME280;26529;51.530;11.754;2023-01-28T09:22:11;101248.22;;;19.53;45.97
40075;BME280;26529;51.530;11.754;2023-01-28T09:24:36;101258.00;;;19.52;45.91
40075;BME280;26529;51.530;11.754;2023-01-28T09:27:01;101262.06;;;19.60;45.15
40075;BME280;26529;51.530;11.754;2023-01-28T09:29:27;101260.91;;;19.65;45.30
40075;BME280;26529;51.530;11.754;2023-01-28T09:31:52;101260.97;;;19.64;45.05
40075;BME280;26529;51.530;11.754;2023-01-28T09:34:18;101263.34;;;19.70;45.21
40075;BME280;26529;51.530;11.754;2023-01-28T09:36:43;101269.13;;;19.78;45.16
40075;BME280;26529;51.530;11.754;2023-01-28T09:39:09;101271.72;;;19.80;45.11
40075;BME280;26529;51.530;11.754;2023-01-28T09:41:47;101276.56;;;20.25;48.03
40075;BME280;26529;51.530;11.754;2023-01-28T09:46:49;101286.84;;;19.97;44.94
40075;BME280;26529;51.530;11.754;2023-01-28T09:49:33;101282.59;;;19.93;45.45
40075;BME280;26529;51.530;11.754;2023-01-28T09:51:59;101291.53;;;19.92;45.51
40075;BME280;26529;51.530;11.754;2023-01-28T09:54:41;101283.47;;;19.93;45.43
40075;BME280;26529;51.530;11.754;2023-01-28T09:57:26;101293.25;;;19.93;45.38
40075;BME280;26529;51.530;11.754;2023-01-28T09:59:52;101290.66;;;19.91;45.31
40075;BME280;26529;51.530;11.754;2023-01-28T10:02:54;101288.94;;;19.90;45.40
40075;BME280;26529;51.530;11.754;2023-01-28T10:08:29;101293.41;;;19.90;45.21
40075;BME280;26529;51.530;11.754;2023-01-28T10:11:10;101291.06;;;19.84;45.59
40075;BME280;26529;51.530;11.754;2023-01-28T10:14:26;101294.50;;;19.86;45.64
40075;BME280;26529;51.530;11.754;2023-01-28T10:16:45;101297.78;;;19.91;45.29
40075;BME280;26529;51.530;11.754;2023-01-28T10:19:24;101301.88;;;19.98;45.37
40075;BME280;26529;51.530;11.754;2023-01-28T10:21:56;101295.47;;;20.02;44.94
40075;BME280;26529;51.530;11.754;2023-01-28T10:24:52;101297.78;;;20.09;44.91
40075;BME280;26529;51.530;11.754;2023-01-28T10:27:27;101294.22;;;20.10;44.86
40075;BME280;26529;51.530;11.754;2023-01-28T10:29:55;101301.34;;;20.09;44.84
40075;BME280;26529;51.530;11.754;2023-01-28T10:34:56;101292.72;;;20.04;44.86
40075;BME280;26529;51.530;11.754;2023-01-28T10:37:26;101292.81;;;20.02;44.91
40075;BME280;26529;51.530;11.754;2023-01-28T10:39:56;101287.31;;;20.05;44.95
40075;BME280;26529;51.530;11.754;2023-01-28T10:44:57;101281.28;;;20.02;43.11
40075;BME280;26529;51.530;11.754;2023-01-28T10:47:34;101283.59;;;19.90;43.77
40075;BME280;26529;51.530;11.754;2023-01-28T10:50:03;101286.50;;;19.86;44.32
40075;BME280;26529;51.530;11.754;2023-01-28T10:52:29;101288.84;;;19.92;42.92
40075;BME280;26529;51.530;11.754;2023-01-28T10:55:01;101288.09;;;19.90;42.83
40075;BME280;26529;51.530;11.754;2023-01-28T10:57:27;101291.75;;;19.87;43.45
40075;BME280;26529;51.530;11.754;2023-01-28T10:59:53;101281.19;;;19.86;43.21
40075;BME280;26529;51.530;11.754;2023-01-28T11:04:46;101281.34;;;19.83;44.32
40075;BME280;26529;51.530;11.754;2023-01-28T11:07:18;101277.88;;;19.80;44.28
40075;BME280;26529;51.530;11.754;2023-01-28T11:09:46;101274.44;;;19.78;44.02
40075;BME280;26529;51.530;11.754;2023-01-28T11:12:21;101275.31;;;19.79;43.42
40075;BME280;26529;51.530;11.754;2023-01-28T11:14:59;101268.66;;;19.88;43.69
40075;BME280;26529;51.530;11.754;2023-01-28T11:17:31;101282.47;;;19.96;43.22
40075;BME280;26529;51.530;11.754;2023-01-28T11:19:59;101269.63;;;20.04;43.31
40075;BME280;26529;51.530;11.754;2023-01-28T11:22:35;101265.44;;;20.34;43.08
40075;BME280;26529;51.530;11.754;2023-01-28T11:25:05;101270.97;;;20.47;42.66
40075;BME280;26529;51.530;11.754;2023-01-28T11:27:40;101271.94;;;20.96;42.28
40075;BME280;26529;51.530;11.754;2023-01-28T11:30:31;101275.66;;;21.72;41.39
40075;BME280;26529;51.530;11.754;2023-01-28T11:33:04;101267.25;;;21.94;40.92
40075;BME280;26529;51.530;11.754;2023-01-28T11:35:30;101268.69;;;22.60;40.22
40075;BME280;26529;51.530;11.754;2023-01-28T11:37:57;101262.59;;;23.00;39.83
40075;BME280;26529;51.530;11.754;2023-01-28T11:40:23;101268.16;;;23.39;38.81
40075;BME280;26529;51.530;11.754;2023-01-28T11:42:49;101266.97;;;23.83;38.55
40075;BME280;26529;51.530;11.754;2023-01-28T11:45:17;101263.19;;;24.14;37.93
40075;BME280;26529;51.530;11.754;2023-01-28T11:47:53;101273.91;;;24.39;37.47
40075;BME280;26529;51.530;11.754;2023-01-28T11:50:32;101271.56;;;24.48;37.77
40075;BME280;26529;51.530;11.754;2023-01-28T11:53:26;101268.19;;;24.57;37.57
40075;BME280;26529;51.530;11.754;2023-01-28T11:58:58;101269.75;;;24.99;37.24
40075;BME280;26529;51.530;11.754;2023-01-28T12:04:22;101265.53;;;24.70;37.54
40075;BME280;26529;51.530;11.754;2023-01-28T12:09:49;101260.63;;;22.31;34.96
40075;BME280;26529;51.530;11.754;2023-01-28T12:12:43;101260.66;;;22.60;36.78
40075;BME280;26529;51.530;11.754;2023-01-28T12:15:39;101264.69;;;22.95;35.65
40075;BME280;26529;51.530;11.754;2023-01-28T12:21:34;101274.34;;;23.67;33.10
40075;BME280;26529;51.530;11.754;2023-01-28T12:24:16;101263.41;;;24.36;32.18
40075;BME280;26529;51.530;11.754;2023-01-28T12:26:54;101259.72;;;24.63;31.13
40075;BME280;26529;51.530;11.754;2023-01-28T12:29:54;101257.03;;;24.63;31.26
40075;BME280;26529;51.530;11.754;2023-01-28T12:32:42;101258.69;;;24.53;31.58
40075;BME280;26529;51.530;11.754;2023-01-28T12:35:27;101259.22;;;24.32;33.05
40075;BME280;26529;51.530;11.754;2023-01-28T12:38:33;101264.50;;;24.21;32.01
40075;BME280;26529;51.530;11.754;2023-01-28T12:41:15;101250.31;;;24.19;33.34
40075;BME280;26529;51.530;11.754;2023-01-28T12:49:31;101255.84;;;23.90;33.31
40075;BME280;26529;51.530;11.754;2023-01-28T12:52:12;101244.91;;;23.80;33.12
40075;BME280;26529;51.530;11.754;2023-01-28T12:54:49;101242.75;;;23.72;33.59
40075;BME280;26529;51.530;11.754;2023-01-28T12:57:26;101245.09;;;23.64;34.16
40075;BME280;26529;51.530;11.754;2023-01-28T13:00:20;101238.66;;;23.53;34.39
40075;BME280;26529;51.530;11.754;2023-01-28T13:03:08;101251.66;;;23.45;34.60
40075;BME280;26529;51.530;11.754;2023-01-28T13:05:39;101253.25;;;23.35;34.71
40075;BME280;26529;51.530;11.754;2023-01-28T13:08:23;101242.19;;;23.26;35.00
40075;BME280;26529;51.530;11.754;2023-01-28T13:10:50;101257.03;;;23.17;34.96
40075;BME280;26529;51.530;11.754;2023-01-28T13:13:32;101244.13;;;23.10;35.40
40075;BME280;26529;51.530;11.754;2023-01-28T13:15:59;101253.59;;;23.01;35.46
40075;BME280;26529;51.530;11.754;2023-01-28T13:18:40;101252.19;;;22.95;35.36
40075;BME280;26529;51.530;11.754;2023-01-28T13:23:49;101255.88;;;22.80;35.92
40075;BME280;26529;51.530;11.754;2023-01-28T13:28:46;101259.41;;;22.66;35.75
40075;BME280;26529;51.530;11.754;2023-01-28T13:31:14;101263.34;;;22.60;36.38
40075;BME280;26529;51.530;11.754;2023-01-28T13:34:00;101261.03;;;22.54;36.08
40075;BME280;26529;51.530;11.754;2023-01-28T13:36:29;101267.59;;;22.48;36.29
40075;BME280;26529;51.530;11.754;2023-01-28T13:39:14;101263.47;;;22.42;36.19
40075;BME280;26529;51.530;11.754;2023-01-28T13:41:47;101265.56;;;22.37;36.43
40075;BME280;26529;51.530;11.754;2023-01-28T13:44:31;101269.50;;;22.31;36.92
40075;BME280;26529;51.530;11.754;2023-01-28T13:47:14;101269.78;;;22.27;37.04
40075;BME280;26529;51.530;11.754;2023-01-28T13:49:49;101271.88;;;22.21;36.96
40075;BME280;26529;51.530;11.754;2023-01-28T13:54:52;101272.44;;;22.12;37.38
40075;BME280;26529;51.530;11.754;2023-01-28T13:57:47;101270.91;;;22.08;37.57
40075;BME280;26529;51.530;11.754;2023-01-28T14:00:30;101271.34;;;22.00;37.68
40075;BME280;26529;51.530;11.754;2023-01-28T14:06:21;101275.47;;;21.91;37.44